sensor_id;sensor_type;location;lat;lon;timestamp;P1;durP1;ratioP1;P2;durP2;ratioP2
21120;SDS011;12519;43.318;21.898;2023-04-06T00:02:10;30.0;;;23.0;;
21120;SDS011;12519;43.318;21.898;2023-04-06T00:06:47;30.0;;;23.0;;
21120;SDS011;12519;43.318;21.898;2023-04-06T00:11:23;29.0;;;22.0;;
21120;SDS011;12519;43.318;21.898;2023-04-06T00:16:02;29.0;;;22.0;;
21120;SDS011;12519;43.318;21.898;2023-04-06T00:20:42;28.0;;;21.0;;
21120;SDS011;12519;43.318;21.898;2023-04-06T00:25:19;28.0;;;21.0;;
21120;SDS011;12519;43.318;21.898;2023-04-06T00:29:56;28.0;;;21.0;;
21120;SDS011;12519;43.318;21.898;2023-04-06T00:34:33;26.0;;;20.0;;
21120;SDS011;12519;43.318;21.898;2023-04-06T00:39:10;26.0;;;20.0;;
21120;SDS011;12519;43.318;21.898;2023-04-06T00:43:47;23.0;;;18.0;;
21120;SDS011;12519;43.318;21.898;2023-04-06T00:48:24;23.0;;;18.0;;
21120;SDS011;12519;43.318;21.898;2023-04-06T00:53:01;20.0;;;17.0;;
21120;SDS011;12519;43.318;21.898;2023-04-06T00:57:38;20.0;;;17.0;;
21120;SDS011;12519;43.318;21.898;2023-04-06T01:02:16;20.0;;;17.0;;
21120;SDS011;12519;43.318;21.898;2023-04-06T01:06:52;20.0;;;17.0;;
21120;SDS011;12519;43.318;21.898;2023-04-06T01:11:29;20.0;;;17.0;;
21120;SDS011;12519;43.318;21.898;2023-04-06T01:16:05;20.0;;;17.0;;
21120;SDS011;12519;43.318;21.898;2023-04-06T01:20:43;19.0;;;16.0;;
21120;SDS011;12519;43.318;21.898;2023-04-06T01:25:19;19.0;;;16.0;;
21120;SDS011;12519;43.318;21.898;2023-04-06T01:29:56;19.0;;;16.0;;
21120;SDS011;12519;43.318;21.898;2023-04-06T01:34:33;18.0;;;15.0;;
21120;SDS011;12519;43.318;21.898;2023-04-06T01:39:10;18.0;;;15.0;;
21120;SDS011;12519;43.318;21.898;2023-04-06T01:43:47;20.0;;;15.0;;
21120;SDS011;12519;43.318;21.898;2023-04-06T01:48:25;20.0;;;15.0;;
21120;SDS011;12519;43.318;21.898;2023-04-06T01:53:03;21.0;;;15.0;;
21120;SDS011;12519;43.318;21.898;2023-04-06T01:57:39;21.0;;;15.0;;
21120;SDS011;12519;43.318;21.898;2023-04-06T02:02:17;20.0;;;16.0;;
21120;SDS011;12519;43.318;21.898;2023-04-06T02:06:54;20.0;;;16.0;;
21120;SDS011;12519;43.318;21.898;2023-04-06T02:11:31;19.0;;;17.0;;
21120;SDS011;12519;43.318;21.898;2023-04-06T02:16:08;19.0;;;17.0;;
21120;SDS011;12519;43.318;21.898;2023-04-06T02:20:45;20.0;;;16.0;;
21120;SDS011;12519;43.318;21.898;2023-04-06T02:25:22;20.0;;;16.0;;
21120;SDS011;12519;43.318;21.898;2023-04-06T02:29:59;20.0;;;16.0;;
21120;SDS011;12519;43.318;21.898;2023-04-06T02:34:36;21.0;;;16.0;;
21120;SDS011;12519;43.318;21.898;2023-04-06T02:39:12;21.0;;;16.0;;
21120;SDS011;12519;43.318;21.898;2023-04-06T02:43:50;18.0;;;16.0;;
21120;SDS011;12519;43.318;21.898;2023-04-06T02:48:26;18.0;;;16.0;;
21120;SDS011;12519;43.318;21.898;2023-04-06T02:53:03;16.0;;;15.0;;
21120;SDS011;12519;43.318;21.898;2023-04-06T02:57:40;16.0;;;15.0;;
21120;SDS011;12519;43.318;21.898;2023-04-06T03:02:17;18.0;;;16.0;;
21120;SDS011;12519;43.318;21.898;2023-04-06T03:06:54;18.0;;;16.0;;
21120;SDS011;12519;43.318;21.898;2023-04-06T03:11:31;19.0;;;17.0;;
21120;SDS011;12519;43.318;21.898;2023-04-06T03:16:08;19.0;;;17.0;;
21120;SDS011;12519;43.318;21.898;2023-04-06T03:20:45;18.0;;;16.0;;
21120;SDS011;12519;43.318;21.898;2023-04-06T03:25:22;18.0;;;16.0;;
21120;SDS011;12519;43.318;21.898;2023-04-06T03:29:59;18.0;;;16.0;;
21120;SDS011;12519;43.318;21.898;2023-04-06T03:34:37;18.0;;;16.0;;
21120;SDS011;12519;43.318;21.898;2023-04-06T03:39:15;18.0;;;16.0;;
21120;SDS011;12519;43.318;21.898;2023-04-06T03:43:52;21.0;;;17.0;;
21120;SDS011;12519;43.318;21.898;2023-04-06T03:48:28;21.0;;;17.0;;
21120;SDS011;12519;43.318;21.898;2023-04-06T03:53:05;24.0;;;18.0;;
21120;SDS011;12519;43.318;21.898;2023-04-06T03:57:41;24.0;;;18.0;;
21120;SDS011;12519;43.318;21.898;2023-04-06T04:02:18;24.0;;;18.0;;
21120;SDS011;12519;43.318;21.898;2023-04-06T04:06:54;24.0;;;18.0;;
21120;SDS011;12519;43.318;21.898;2023-04-06T04:11:30;23.0;;;17.0;;
21120;SDS011;12519;43.318;21.898;2023-04-06T04:16:07;23.0;;;17.0;;
21120;SDS011;12519;43.318;21.898;2023-04-06T04:20:44;20.0;;;16.0;;
21120;SDS011;12519;43.318;21.898;2023-04-06T04:25:22;20.0;;;16.0;;
21120;SDS011;12519;43.318;21.898;2023-04-06T04:30:00;20.0;;;16.0;;
21120;SDS011;12519;43.318;21.898;2023-04-06T04:34:36;16.0;;;15.0;;
21120;SDS011;12519;43.318;21.898;2023-04-06T04:39:13;16.0;;;15.0;;
21120;SDS011;12519;43.318;21.898;2023-04-06T04:43:50;18.0;;;16.0;;
21120;SDS011;12519;43.318;21.898;2023-04-06T04:48:27;18.0;;;16.0;;
21120;SDS011;12519;43.318;21.898;2023-04-06T04:53:03;20.0;;;17.0;;
21120;SDS011;12519;43.318;21.898;2023-04-06T04:57:40;20.0;;;17.0;;
21120;SDS011;12519;43.318;21.898;2023-04-06T05:02:17;19.0;;;16.0;;
21120;SDS011;12519;43.318;21.898;2023-04-06T05:07:01;19.0;;;16.0;;
21120;SDS011;12519;43.318;21.898;2023-04-06T05:11:44;18.0;;;14.0;;
21120;SDS011;12519;43.318;21.898;2023-04-06T05:16:21;18.0;;;14.0;;
21120;SDS011;12519;43.318;21.898;2023-04-06T05:20:58;18.0;;;15.0;;
21120;SDS011;12519;43.318;21.898;2023-04-06T05:25:35;18.0;;;15.0;;
21120;SDS011;12519;43.318;21.898;2023-04-06T05:30:12;18.0;;;15.0;;
21120;SDS011;12519;43.318;21.898;2023-04-06T05:34:50;17.0;;;16.0;;
21120;SDS011;12519;43.318;21.898;2023-04-06T05:39:27;17.0;;;16.0;;
21120;SDS011;12519;43.318;21.898;2023-04-06T05:44:04;22.0;;;20.0;;
21120;SDS011;12519;43.318;21.898;2023-04-06T05:48:41;22.0;;;20.0;;
21120;SDS011;12519;43.318;21.898;2023-04-06T05:53:17;28.0;;;23.0;;
21120;SDS011;12519;43.318;21.898;2023-04-06T05:57:55;28.0;;;23.0;;
21120;SDS011;12519;43.318;21.898;2023-04-06T06:02:32;23.0;;;19.0;;
21120;SDS011;12519;43.318;21.898;2023-04-06T06:07:09;23.0;;;19.0;;
21120;SDS011;12519;43.318;21.898;2023-04-06T06:11:46;18.0;;;15.0;;
21120;SDS011;12519;43.318;21.898;2023-04-06T06:16:24;18.0;;;15.0;;
21120;SDS011;12519;43.318;21.898;2023-04-06T06:21:01;21.0;;;18.0;;
21120;SDS011;12519;43.318;21.898;2023-04-06T06:25:39;21.0;;;18.0;;
21120;SDS011;12519;43.318;21.898;2023-04-06T06:30:15;21.0;;;18.0;;
21120;SDS011;12519;43.318;21.898;2023-04-06T06:34:52;24.0;;;22.0;;
21120;SDS011;12519;43.318;21.898;2023-04-06T06:39:29;24.0;;;22.0;;
21120;SDS011;12519;43.318;21.898;2023-04-06T06:44:05;24.0;;;21.0;;
21120;SDS011;12519;43.318;21.898;2023-04-06T06:48:41;24.0;;;21.0;;
21120;SDS011;12519;43.318;21.898;2023-04-06T06:53:18;24.0;;;20.0;;
21120;SDS011;12519;43.318;21.898;2023-04-06T06:57:55;24.0;;;20.0;;
21120;SDS011;12519;43.318;21.898;2023-04-06T07:02:33;30.0;;;24.0;;
21120;SDS011;12519;43.318;21.898;2023-04-06T07:07:11;30.0;;;24.0;;
21120;SDS011;12519;43.318;21.898;2023-04-06T07:11:48;37.0;;;27.0;;
21120;SDS011;12519;43.318;21.898;2023-04-06T07:16:25;37.0;;;27.0;;
21120;SDS011;12519;43.318;21.898;2023-04-06T07:21:02;37.0;;;27.0;;
21120;SDS011;12519;43.318;21.898;2023-04-06T07:25:40;50.0;;;33.0;;
21120;SDS011;12519;43.318;21.898;2023-04-06T07:30:18;50.0;;;33.0;;
21120;SDS011;12519;43.318;21.898;2023-04-06T07:34:56;63.0;;;39.0;;
21120;SDS011;12519;43.318;21.898;2023-04-06T07:39:33;63.0;;;39.0;;
21120;SDS011;12519;43.318;21.898;2023-04-06T07:44:10;42.0;;;30.0;;
21120;SDS011;12519;43.318;21.898;2023-04-06T07:48:47;42.0;;;30.0;;
21120;SDS011;12519;43.318;21.898;2023-04-06T07:53:24;22.0;;;21.0;;
21120;SDS011;12519;43.318;21.898;2023-04-06T07:58:01;22.0;;;21.0;;
21120;SDS011;12519;43.318;21.898;2023-04-06T08:02:38;21.0;;;20.0;;
21120;SDS011;12519;43.318;21.898;2023-04-06T08:07:15;21.0;;;20.0;;
21120;SDS011;12519;43.318;21.898;2023-04-06T08:11:51;20.0;;;18.0;;
21120;SDS011;12519;43.318;21.898;2023-04-06T08:16:29;20.0;;;18.0;;
21120;SDS011;12519;43.318;21.898;2023-04-06T08:21:05;20.0;;;18.0;;
21120;SDS011;12519;43.318;21.898;2023-04-06T08:25:42;19.0;;;17.0;;
21120;SDS011;12519;43.318;21.898;2023-04-06T08:30:19;19.0;;;17.0;;
21120;SDS011;12519;43.318;21.898;2023-04-06T08:34:56;18.0;;;16.0;;
21120;SDS011;12519;43.318;21.898;2023-04-06T08:39:33;18.0;;;16.0;;
21120;SDS011;12519;43.318;21.898;2023-04-06T08:44:11;16.0;;;16.0;;
21120;SDS011;12519;43.318;21.898;2023-04-06T08:48:49;16.0;;;16.0;;
21120;SDS011;12519;43.318;21.898;2023-04-06T08:53:27;15.0;;;15.0;;
21120;SDS011;12519;43.318;21.898;2023-04-06T08:58:05;15.0;;;15.0;;
21120;SDS011;12519;43.318;21.898;2023-04-06T09:02:45;14.0;;;13.0;;
21120;SDS011;12519;43.318;21.898;2023-04-06T09:07:28;14.0;;;13.0;;
21120;SDS011;12519;43.318;21.898;2023-04-06T09:12:05;14.0;;;11.0;;
21120;SDS011;12519;43.318;21.898;2023-04-06T09:16:43;14.0;;;11.0;;
21120;SDS011;12519;43.318;21.898;2023-04-06T09:21:21;14.0;;;11.0;;
21120;SDS011;12519;43.318;21.898;2023-04-06T09:26:06;14.0;;;12.0;;
21120;SDS011;12519;43.318;21.898;2023-04-06T09:30:50;14.0;;;12.0;;
21120;SDS011;12519;43.318;21.898;2023-04-06T09:35:27;15.0;;;14.0;;
21120;SDS011;12519;43.318;21.898;2023-04-06T09:40:04;15.0;;;14.0;;
21120;SDS011;12519;43.318;21.898;2023-04-06T09:44:46;14.0;;;12.0;;
21120;SDS011;12519;43.318;21.898;2023-04-06T09:49:23;14.0;;;12.0;;
21120;SDS011;12519;43.318;21.898;2023-04-06T09:54:09;12.0;;;11.0;;
21120;SDS011;12519;43.318;21.898;2023-04-06T09:59:05;12.0;;;11.0;;
21120;SDS011;12519;43.318;21.898;2023-04-06T10:04:21;13.0;;;12.0;;
21120;SDS011;12519;43.318;21.898;2023-04-06T10:09:40;13.0;;;12.0;;
21120;SDS011;12519;43.318;21.898;2023-04-06T10:14:25;14.0;;;13.0;;
21120;SDS011;12519;43.318;21.898;2023-04-06T10:19:04;14.0;;;13.0;;
21120;SDS011;12519;43.318;21.898;2023-04-06T10:24:24;14.0;;;12.0;;
21120;SDS011;12519;43.318;21.898;2023-04-06T10:29:02;14.0;;;12.0;;
21120;SDS011;12519;43.318;21.898;2023-04-06T10:33:53;15.0;;;12.0;;
21120;SDS011;12519;43.318;21.898;2023-04-06T10:38:36;15.0;;;12.0;;
21120;SDS011;12519;43.318;21.898;2023-04-06T10:43:18;14.0;;;12.0;;
21120;SDS011;12519;43.318;21.898;2023-04-06T10:47:58;14.0;;;12.0;;
21120;SDS011;12519;43.318;21.898;2023-04-06T10:52:35;14.0;;;13.0;;
21120;SDS011;12519;43.318;21.898;2023-04-06T10:57:12;14.0;;;13.0;;
21120;SDS011;12519;43.318;21.898;2023-04-06T11:01:49;14.0;;;13.0;;
21120;SDS011;12519;43.318;21.898;2023-04-06T11:06:27;14.0;;;13.0;;
21120;SDS011;12519;43.318;21.898;2023-04-06T11:11:07;14.0;;;13.0;;
21120;SDS011;12519;43.318;21.898;2023-04-06T11:15:56;14.0;;;13.0;;
21120;SDS011;12519;43.318;21.898;2023-04-06T11:20:33;14.0;;;13.0;;
21120;SDS011;12519;43.318;21.898;2023-04-06T11:25:11;16.0;;;14.0;;
21120;SDS011;12519;43.318;21.898;2023-04-06T11:29:48;16.0;;;14.0;;
21120;SDS011;12519;43.318;21.898;2023-04-06T11:34:28;18.0;;;14.0;;
21120;SDS011;12519;43.318;21.898;2023-04-06T11:39:18;18.0;;;14.0;;
21120;SDS011;12519;43.318;21.898;2023-04-06T11:44:05;18.0;;;14.0;;
21120;SDS011;12519;43.318;21.898;2023-04-06T11:48:43;18.0;;;14.0;;
21120;SDS011;12519;43.318;21.898;2023-04-06T11:53:21;17.0;;;15.0;;
21120;SDS011;12519;43.318;21.898;2023-04-06T11:57:58;17.0;;;15.0;;
21120;SDS011;12519;43.318;21.898;2023-04-06T12:02:35;16.0;;;14.0;;
21120;SDS011;12519;43.318;21.898;2023-04-06T12:07:12;16.0;;;14.0;;
21120;SDS011;12519;43.318;21.898;2023-04-06T12:11:49;15.0;;;12.0;;
21120;SDS011;12519;43.318;21.898;2023-04-06T12:16:26;15.0;;;12.0;;
21120;SDS011;12519;43.318;21.898;2023-04-06T12:21:03;15.0;;;12.0;;
21120;SDS011;12519;43.318;21.898;2023-04-06T12:25:40;16.0;;;13.0;;
21120;SDS011;12519;43.318;21.898;2023-04-06T12:30:19;16.0;;;13.0;;
21120;SDS011;12519;43.318;21.898;2023-04-06T12:34:57;16.0;;;14.0;;
21120;SDS011;12519;43.318;21.898;2023-04-06T12:39:33;16.0;;;14.0;;
21120;SDS011;12519;43.318;21.898;2023-04-06T12:44:10;16.0;;;14.0;;
21120;SDS011;12519;43.318;21.898;2023-04-06T12:48:48;16.0;;;14.0;;
21120;SDS011;12519;43.318;21.898;2023-04-06T12:53:27;17.0;;;13.0;;
21120;SDS011;12519;43.318;21.898;2023-04-06T12:58:04;17.0;;;13.0;;
21120;SDS011;12519;43.318;21.898;2023-04-06T13:02:42;16.0;;;14.0;;
21120;SDS011;12519;43.318;21.898;2023-04-06T13:07:18;16.0;;;14.0;;
21120;SDS011;12519;43.318;21.898;2023-04-06T13:11:55;15.0;;;14.0;;
21120;SDS011;12519;43.318;21.898;2023-04-06T13:16:32;15.0;;;14.0;;
21120;SDS011;12519;43.318;21.898;2023-04-06T13:21:12;15.0;;;14.0;;
21120;SDS011;12519;43.318;21.898;2023-04-06T13:25:56;18.0;;;14.0;;
21120;SDS011;12519;43.318;21.898;2023-04-06T13:30:41;18.0;;;14.0;;
21120;SDS011;12519;43.318;21.898;2023-04-06T13:35:18;22.0;;;15.0;;
21120;SDS011;12519;43.318;21.898;2023-04-06T13:39:55;22.0;;;15.0;;
21120;SDS011;12519;43.318;21.898;2023-04-06T13:44:32;18.0;;;14.0;;
21120;SDS011;12519;43.318;21.898;2023-04-06T13:49:10;18.0;;;14.0;;
21120;SDS011;12519;43.318;21.898;2023-04-06T13:53:47;15.0;;;14.0;;
21120;SDS011;12519;43.318;21.898;2023-04-06T13:58:24;15.0;;;14.0;;
21120;SDS011;12519;43.318;21.898;2023-04-06T14:03:01;20.0;;;15.0;;
21120;SDS011;12519;43.318;21.898;2023-04-06T14:07:41;20.0;;;15.0;;
21120;SDS011;12519;43.318;21.898;2023-04-06T14:12:18;24.0;;;16.0;;
21120;SDS011;12519;43.318;21.898;2023-04-06T14:16:55;24.0;;;16.0;;
21120;SDS011;12519;43.318;21.898;2023-04-06T14:21:32;24.0;;;16.0;;
21120;SDS011;12519;43.318;21.898;2023-04-06T14:26:09;21.0;;;16.0;;
21120;SDS011;12519;43.318;21.898;2023-04-06T14:30:45;21.0;;;16.0;;
21120;SDS011;12519;43.318;21.898;2023-04-06T14:35:22;18.0;;;15.0;;
21120;SDS011;12519;43.318;21.898;2023-04-06T14:39:58;18.0;;;15.0;;
21120;SDS011;12519;43.318;21.898;2023-04-06T14:44:34;17.0;;;14.0;;
21120;SDS011;12519;43.318;21.898;2023-04-06T14:49:11;17.0;;;14.0;;
21120;SDS011;12519;43.318;21.898;2023-04-06T14:53:47;16.0;;;14.0;;
21120;SDS011;12519;43.318;21.898;2023-04-06T14:58:24;16.0;;;14.0;;
21120;SDS011;12519;43.318;21.898;2023-04-06T15:03:02;14.0;;;13.0;;
21120;SDS011;12519;43.318;21.898;2023-04-06T15:07:39;14.0;;;13.0;;
21120;SDS011;12519;43.318;21.898;2023-04-06T15:12:16;13.0;;;12.0;;
21120;SDS011;12519;43.318;21.898;2023-04-06T15:16:52;13.0;;;12.0;;
21120;SDS011;12519;43.318;21.898;2023-04-06T15:21:29;13.0;;;12.0;;
21120;SDS011;12519;43.318;21.898;2023-04-06T15:26:06;24.0;;;17.0;;
21120;SDS011;12519;43.318;21.898;2023-04-06T15:30:43;24.0;;;17.0;;
21120;SDS011;12519;43.318;21.898;2023-04-06T15:35:21;34.0;;;22.0;;
21120;SDS011;12519;43.318;21.898;2023-04-06T15:40:00;34.0;;;22.0;;
21120;SDS011;12519;43.318;21.898;2023-04-06T15:44:37;28.0;;;20.0;;
21120;SDS011;12519;43.318;21.898;2023-04-06T15:49:13;28.0;;;20.0;;
21120;SDS011;12519;43.318;21.898;2023-04-06T15:53:50;22.0;;;19.0;;
21120;SDS011;12519;43.318;21.898;2023-04-06T15:58:27;22.0;;;19.0;;
21120;SDS011;12519;43.318;21.898;2023-04-06T16:03:04;20.0;;;17.0;;
21120;SDS011;12519;43.318;21.898;2023-04-06T16:07:41;20.0;;;17.0;;
21120;SDS011;12519;43.318;21.898;2023-04-06T16:12:17;17.0;;;15.0;;
21120;SDS011;12519;43.318;21.898;2023-04-06T16:16:57;17.0;;;15.0;;
21120;SDS011;12519;43.318;21.898;2023-04-06T16:21:34;17.0;;;15.0;;
21120;SDS011;12519;43.318;21.898;2023-04-06T16:26:10;31.0;;;22.0;;
21120;SDS011;12519;43.318;21.898;2023-04-06T16:30:50;31.0;;;22.0;;
21120;SDS011;12519;43.318;21.898;2023-04-06T16:35:28;45.0;;;30.0;;
21120;SDS011;12519;43.318;21.898;2023-04-06T16:40:06;45.0;;;30.0;;
21120;SDS011;12519;43.318;21.898;2023-04-06T16:44:46;32.0;;;24.0;;
21120;SDS011;12519;43.318;21.898;2023-04-06T16:49:24;32.0;;;24.0;;
21120;SDS011;12519;43.318;21.898;2023-04-06T16:54:00;19.0;;;18.0;;
21120;SDS011;12519;43.318;21.898;2023-04-06T16:58:39;19.0;;;18.0;;
21120;SDS011;12519;43.318;21.898;2023-04-06T17:03:16;18.0;;;18.0;;
21120;SDS011;12519;43.318;21.898;2023-04-06T17:07:53;18.0;;;18.0;;
21120;SDS011;12519;43.318;21.898;2023-04-06T17:12:29;18.0;;;17.0;;
21120;SDS011;12519;43.318;21.898;2023-04-06T17:17:05;18.0;;;17.0;;
21120;SDS011;12519;43.318;21.898;2023-04-06T17:21:41;18.0;;;17.0;;
21120;SDS011;12519;43.318;21.898;2023-04-06T17:26:18;25.0;;;24.0;;
21120;SDS011;12519;43.318;21.898;2023-04-06T17:30:55;25.0;;;24.0;;
21120;SDS011;12519;43.318;21.898;2023-04-06T17:35:33;32.0;;;30.0;;
21120;SDS011;12519;43.318;21.898;2023-04-06T17:40:10;32.0;;;30.0;;
21120;SDS011;12519;43.318;21.898;2023-04-06T17:44:48;38.0;;;34.0;;
21120;SDS011;12519;43.318;21.898;2023-04-06T17:49:26;38.0;;;34.0;;
21120;SDS011;12519;43.318;21.898;2023-04-06T17:54:03;43.0;;;38.0;;
21120;SDS011;12519;43.318;21.898;2023-04-06T17:58:40;43.0;;;38.0;;
21120;SDS011;12519;43.318;21.898;2023-04-06T18:03:17;40.0;;;36.0;;
21120;SDS011;12519;43.318;21.898;2023-04-06T18:07:54;40.0;;;36.0;;
21120;SDS011;12519;43.318;21.898;2023-04-06T18:12:32;37.0;;;33.0;;
21120;SDS011;12519;43.318;21.898;2023-04-06T18:17:09;37.0;;;33.0;;
21120;SDS011;12519;43.318;21.898;2023-04-06T18:21:46;37.0;;;33.0;;
21120;SDS011;12519;43.318;21.898;2023-04-06T18:26:23;43.0;;;36.0;;
21120;SDS011;12519;43.318;21.898;2023-04-06T18:31:00;43.0;;;36.0;;
21120;SDS011;12519;43.318;21.898;2023-04-06T18:35:37;49.0;;;40.0;;
21120;SDS011;12519;43.318;21.898;2023-04-06T18:40:30;49.0;;;40.0;;
21120;SDS011;12519;43.318;21.898;2023-04-06T18:45:13;44.0;;;38.0;;
21120;SDS011;12519;43.318;21.898;2023-04-06T18:49:51;44.0;;;38.0;;
21120;SDS011;12519;43.318;21.898;2023-04-06T18:54:27;40.0;;;37.0;;
21120;SDS011;12519;43.318;21.898;2023-04-06T18:59:04;40.0;;;37.0;;
21120;SDS011;12519;43.318;21.898;2023-04-06T19:03:41;35.0;;;32.0;;
21120;SDS011;12519;43.318;21.898;2023-04-06T19:08:17;35.0;;;32.0;;
21120;SDS011;12519;43.318;21.898;2023-04-06T19:12:54;30.0;;;27.0;;
21120;SDS011;12519;43.318;21.898;2023-04-06T19:17:31;30.0;;;27.0;;
21120;SDS011;12519;43.318;21.898;2023-04-06T19:22:09;30.0;;;27.0;;
21120;SDS011;12519;43.318;21.898;2023-04-06T19:26:47;40.0;;;33.0;;
21120;SDS011;12519;43.318;21.898;2023-04-06T19:31:24;40.0;;;33.0;;
21120;SDS011;12519;43.318;21.898;2023-04-06T19:36:01;49.0;;;39.0;;
21120;SDS011;12519;43.318;21.898;2023-04-06T19:40:43;49.0;;;39.0;;
21120;SDS011;12519;43.318;21.898;2023-04-06T19:45:20;48.0;;;40.0;;
21120;SDS011;12519;43.318;21.898;2023-04-06T19:49:56;48.0;;;40.0;;
21120;SDS011;12519;43.318;21.898;2023-04-06T19:54:33;48.0;;;42.0;;
21120;SDS011;12519;43.318;21.898;2023-04-06T19:59:10;48.0;;;42.0;;
21120;SDS011;12519;43.318;21.898;2023-04-06T20:03:46;62.0;;;50.0;;
21120;SDS011;12519;43.318;21.898;2023-04-06T20:08:23;62.0;;;50.0;;
21120;SDS011;12519;43.318;21.898;2023-04-06T20:12:59;76.0;;;58.0;;
21120;SDS011;12519;43.318;21.898;2023-04-06T20:17:36;76.0;;;58.0;;
21120;SDS011;12519;43.318;21.898;2023-04-06T20:22:13;76.0;;;58.0;;
21120;SDS011;12519;43.318;21.898;2023-04-06T20:26:50;74.0;;;61.0;;
21120;SDS011;12519;43.318;21.898;2023-04-06T20:31:27;74.0;;;61.0;;
21120;SDS011;12519;43.318;21.898;2023-04-06T20:36:04;73.0;;;64.0;;
21120;SDS011;12519;43.318;21.898;2023-04-06T20:40:43;73.0;;;64.0;;
21120;SDS011;12519;43.318;21.898;2023-04-06T20:45:21;91.0;;;76.0;;
21120;SDS011;12519;43.318;21.898;2023-04-06T20:49:59;91.0;;;76.0;;
21120;SDS011;12519;43.318;21.898;2023-04-06T20:54:37;109.0;;;88.0;;
21120;SDS011;12519;43.318;21.898;2023-04-06T20:59:14;109.0;;;88.0;;
21120;SDS011;12519;43.318;21.898;2023-04-06T21:03:51;92.0;;;72.0;;
21120;SDS011;12519;43.318;21.898;2023-04-06T21:08:28;92.0;;;72.0;;
21120;SDS011;12519;43.318;21.898;2023-04-06T21:13:04;74.0;;;56.0;;
21120;SDS011;12519;43.318;21.898;2023-04-06T21:17:41;74.0;;;56.0;;
21120;SDS011;12519;43.318;21.898;2023-04-06T21:22:18;74.0;;;56.0;;
21120;SDS011;12519;43.318;21.898;2023-04-06T21:26:54;66.0;;;54.0;;
21120;SDS011;12519;43.318;21.898;2023-04-06T21:31:31;66.0;;;54.0;;
21120;SDS011;12519;43.318;21.898;2023-04-06T21:36:08;59.0;;;52.0;;
21120;SDS011;12519;43.318;21.898;2023-04-06T21:40:52;59.0;;;52.0;;
21120;SDS011;12519;43.318;21.898;2023-04-06T21:45:30;71.0;;;54.0;;
21120;SDS011;12519;43.318;21.898;2023-04-06T21:50:07;71.0;;;54.0;;
21120;SDS011;12519;43.318;21.898;2023-04-06T21:54:46;83.0;;;55.0;;
21120;SDS011;12519;43.318;21.898;2023-04-06T21:59:22;83.0;;;55.0;;
21120;SDS011;12519;43.318;21.898;2023-04-06T22:04:00;62.0;;;44.0;;
21120;SDS011;12519;43.318;21.898;2023-04-06T22:08:37;62.0;;;44.0;;
21120;SDS011;12519;43.318;21.898;2023-04-06T22:13:14;41.0;;;33.0;;
21120;SDS011;12519;43.318;21.898;2023-04-06T22:17:51;41.0;;;33.0;;
21120;SDS011;12519;43.318;21.898;2023-04-06T22:22:28;41.0;;;33.0;;
21120;SDS011;12519;43.318;21.898;2023-04-06T22:27:05;46.0;;;39.0;;
21120;SDS011;12519;43.318;21.898;2023-04-06T22:31:41;46.0;;;39.0;;
21120;SDS011;12519;43.318;21.898;2023-04-06T22:36:18;51.0;;;45.0;;
21120;SDS011;12519;43.318;21.898;2023-04-06T22:40:54;51.0;;;45.0;;
21120;SDS011;12519;43.318;21.898;2023-04-06T22:45:31;54.0;;;45.0;;
21120;SDS011;12519;43.318;21.898;2023-04-06T22:50:07;54.0;;;45.0;;
21120;SDS011;12519;43.318;21.898;2023-04-06T22:54:45;56.0;;;45.0;;
21120;SDS011;12519;43.318;21.898;2023-04-06T22:59:22;56.0;;;45.0;;
21120;SDS011;12519;43.318;21.898;2023-04-06T23:03:59;50.0;;;44.0;;
21120;SDS011;12519;43.318;21.898;2023-04-06T23:08:35;50.0;;;44.0;;
21120;SDS011;12519;43.318;21.898;2023-04-06T23:13:12;45.0;;;43.0;;
21120;SDS011;12519;43.318;21.898;2023-04-06T23:17:48;45.0;;;43.0;;
21120;SDS011;12519;43.318;21.898;2023-04-06T23:22:25;45.0;;;43.0;;
21120;SDS011;12519;43.318;21.898;2023-04-06T23:27:02;44.0;;;40.0;;
21120;SDS011;12519;43.318;21.898;2023-04-06T23:31:39;44.0;;;40.0;;
21120;SDS011;12519;43.318;21.898;2023-04-06T23:36:16;44.0;;;37.0;;
21120;SDS011;12519;43.318;21.898;2023-04-06T23:40:53;44.0;;;37.0;;
21120;SDS011;12519;43.318;21.898;2023-04-06T23:45:30;46.0;;;38.0;;
21120;SDS011;12519;43.318;21.898;2023-04-06T23:50:07;46.0;;;38.0;;
21120;SDS011;12519;43.318;21.898;2023-04-06T23:54:45;47.0;;;40.0;;
21120;SDS011;12519;43.318;21.898;2023-04-06T23:59:22;47.0;;;40.0;;
